< < Back
Terminal Aerodrome Forecast


Current Version              Previous Versions:   1  2  3  4  5  6  7  8  9  

Terminal Aerodrome Forecast

486
FTUS42 KGSP 291128
TAFHKY
TAF
KHKY 291128Z 2912/3012 VRB03KT 1/4SM FG VV001
      TEMPO 2912/2914 3SM BR OVC006
     FM291400 03004KT P6SM SCT013
     FM291500 31003KT P6SM SCT250
     FM300900 04003KT P6SM BKN110=

Latest METAR

432
SAUS70 KWBC 300100 RRK
MTRHKY
METAR KHKY 300053Z 00000KT 10SM CLR 25/09 A2997 RMK AO2 SLP130
T02500089


USA.gov is the U.S. government's official web portal to all federal, state and local government web resources and services.